Time;durP1;ratioP1;P1;durP2;ratioP2;P2;SDS_P1;SDS_P2;PMS_P1;PMS_P2;Temp;Humidity;BMP_temperature;BMP_pressure;BME280_temperature;BME280_humidity;BME280_pressure;Samples;Min_cycle;Max_cycle;Signal;HPM_P1;HPM_P2
2023/10/27 00:01:57;;;;;;;1.67;0.30;;;19.70;45.90;;;;;;7401326;19;19915;-73
2023/10/27 00:04:23;;;;;;;0.73;0.40;;;19.80;44.50;;;;;;7402552;19;20328;-72
2023/10/27 00:06:49;;;;;;;0.98;0.52;;;19.70;43.20;;;;;;7402092;19;19906;-72
2023/10/27 00:09:14;;;;;;;1.90;0.25;;;19.70;40.30;;;;;;7399363;19;19940;-72
2023/10/27 00:11:40;;;;;;;1.60;0.38;;;19.80;38.60;;;;;;7403205;19;19974;-72
2023/10/27 00:14:07;;;;;;;1.92;0.22;;;19.80;38.20;;;;;;7399052;19;19931;-73
2023/10/27 00:16:33;;;;;;;0.47;0.13;;;19.80;34.80;;;;;;7403131;19;19934;-72
2023/10/27 00:18:59;;;;;;;0.68;0.32;;;19.90;33.10;;;;;;7380661;19;19947;-72
2023/10/27 00:21:24;;;;;;;0.95;0.22;;;20.00;31.50;;;;;;7402298;19;20438;-73
2023/10/27 00:23:50;;;;;;;1.40;0.22;;;20.10;29.30;;;;;;7404816;19;19911;-73
2023/10/27 00:26:16;;;;;;;0.30;0.20;;;20.00;28.60;;;;;;7402301;19;19918;-73
2023/10/27 00:28:42;;;;;;;0.32;0.25;;;20.00;27.70;;;;;;7403839;19;19946;-73
2023/10/27 00:31:07;;;;;;;1.25;0.22;;;20.10;26.60;;;;;;7402189;19;19929;-73
2023/10/27 00:33:34;;;;;;;0.52;0.20;;;20.10;26.50;;;;;;7405267;19;19918;-73
2023/10/27 00:36:00;;;;;;;;;;;20.00;26.20;;;;;;7404725;19;19939;-72
2023/10/27 00:38:26;;;;;;;1.67;0.20;;;19.90;26.20;;;;;;7401937;19;19914;-73
2023/10/27 00:40:52;;;;;;;0.13;0.10;;;19.90;26.00;;;;;;7404777;19;19925;-73
2023/10/27 00:43:18;;;;;;;0.45;0.22;;;19.90;25.50;;;;;;7404690;19;20312;-73
2023/10/27 00:45:48;;;;;;;1.90;0.32;;;19.90;25.10;;;;;;7404043;19;19934;-73
2023/10/27 00:48:15;;;;;;;0.10;0.10;;;19.90;25.00;;;;;;7401315;19;19934;-73
2023/10/27 00:50:42;;;;;;;0.35;0.20;;;19.90;24.70;;;;;;7402323;19;20318;-72
2023/10/27 00:53:08;;;;;;;0.60;0.20;;;19.80;24.30;;;;;;7401647;19;20358;-73
2023/10/27 00:55:36;;;;;;;1.27;0.25;;;19.90;24.10;;;;;;7402021;19;19922;-73
2023/10/27 00:58:03;;;;;;;1.10;0.40;;;19.80;23.50;;;;;;7402928;19;19919;-73
2023/10/27 01:00:28;;;;;;;;;;;19.80;23.00;;;;;;7407146;19;19922;-74
2023/10/27 01:02:54;;;;;;;1.30;0.50;;;19.70;22.60;;;;;;7408062;19;19911;-72
2023/10/27 01:05:20;;;;;;;1.40;0.25;;;19.80;22.40;;;;;;7406654;19;19926;-72
2023/10/27 01:07:46;;;;;;;2.15;0.32;;;19.70;22.30;;;;;;7408477;19;19915;-73
2023/10/27 01:10:12;;;;;;;2.28;0.43;;;19.60;22.30;;;;;;7407749;19;19922;-73
2023/10/27 01:12:38;;;;;;;3.55;0.35;;;19.60;22.20;;;;;;7406986;19;19919;-72
2023/10/27 01:15:04;;;;;;;1.50;0.20;;;19.60;21.90;;;;;;7406055;19;19922;-73
2023/10/27 01:17:29;;;;;;;0.95;0.32;;;19.50;21.40;;;;;;7406999;19;19919;-73
2023/10/27 01:19:55;;;;;;;0.73;0.20;;;19.50;21.00;;;;;;7406134;19;19922;-73
2023/10/27 01:22:22;;;;;;;1.67;0.32;;;19.60;20.90;;;;;;7404041;19;19919;-73
2023/10/27 01:24:48;;;;;;;1.73;0.52;;;19.50;21.00;;;;;;7407063;19;19926;-73
2023/10/27 01:27:14;;;;;;;1.60;0.20;;;19.50;20.70;;;;;;7404220;19;19981;-73
2023/10/27 01:29:41;;;;;;;0.52;0.25;;;19.50;20.60;;;;;;7407206;19;19943;-73
2023/10/27 01:32:06;;;;;;;;;;;19.40;20.90;;;;;;7403576;19;19918;-73
2023/10/27 01:34:32;;;;;;;1.33;0.22;;;19.40;20.70;;;;;;7408496;19;19983;-73
2023/10/27 01:36:58;;;;;;;0.57;0.22;;;19.30;21.10;;;;;;7405988;19;19934;-73
2023/10/27 01:39:23;;;;;;;1.50;0.35;;;19.30;21.50;;;;;;7404520;19;19935;-73
2023/10/27 01:41:49;;;;;;;0.60;0.22;;;19.20;21.60;;;;;;7405560;19;19941;-73
2023/10/27 01:44:15;;;;;;;1.20;0.25;;;19.10;21.90;;;;;;7405168;19;19930;-73
2023/10/27 01:46:41;;;;;;;0.15;0.15;;;19.20;22.20;;;;;;7405246;19;19924;-73
2023/10/27 01:49:06;;;;;;;0.70;0.10;;;19.20;22.40;;;;;;7402896;19;19925;-72
2023/10/27 01:51:32;;;;;;;0.55;0.20;;;19.10;22.60;;;;;;7400005;19;19926;-73
2023/10/27 01:53:58;;;;;;;1.17;0.32;;;19.10;22.80;;;;;;7403856;19;20582;-74
2023/10/27 01:56:24;;;;;;;3.13;0.20;;;19.10;23.00;;;;;;7400603;19;19927;-73
2023/10/27 01:58:49;;;;;;;0.77;0.22;;;19.10;23.20;;;;;;7404705;19;19918;-73
2023/10/27 02:01:16;;;;;;;1.00;0.30;;;19.10;23.40;;;;;;7407189;19;19980;-73
2023/10/27 02:03:42;;;;;;;1.13;0.22;;;19.10;23.40;;;;;;7406446;19;19911;-73
2023/10/27 02:06:08;;;;;;;1.20;0.20;;;19.00;23.50;;;;;;7405723;19;19915;-73
2023/10/27 02:08:36;;;;;;;3.53;0.40;;;19.00;23.60;;;;;;7405310;19;19922;-73
2023/10/27 02:11:03;;;;;;;2.85;0.40;;;18.90;23.90;;;;;;7400132;19;19932;-72
2023/10/27 02:13:29;;;;;;;0.80;0.20;;;18.90;24.30;;;;;;7405917;19;19981;-73
2023/10/27 02:15:55;;;;;;;1.10;0.30;;;18.90;24.20;;;;;;7406505;19;19926;-72
2023/10/27 02:18:21;;;;;;;0.85;0.28;;;18.90;24.10;;;;;;7402132;19;19915;-73
2023/10/27 02:20:48;;;;;;;1.20;0.38;;;18.90;24.40;;;;;;7405376;19;19933;-72
2023/10/27 02:23:15;;;;;;;0.55;0.10;;;18.90;24.30;;;;;;7402539;19;20290;-72
2023/10/27 02:25:41;;;;;;;2.38;0.30;;;18.80;24.10;;;;;;7406536;19;19914;-72
2023/10/27 02:28:07;;;;;;;2.22;0.30;;;18.90;23.90;;;;;;7404464;19;19925;-73
2023/10/27 02:30:32;;;;;;;1.40;0.20;;;18.90;23.90;;;;;;7400914;19;19997;-73
2023/10/27 02:32:58;;;;;;;1.85;0.30;;;18.90;23.80;;;;;;7401943;19;19922;-74
2023/10/27 02:35:25;;;;;;;1.85;0.40;;;18.90;23.90;;;;;;7404790;19;19930;-73
2023/10/27 02:37:53;;;;;;;2.38;0.35;;;18.80;23.90;;;;;;7405789;19;20873;-73
2023/10/27 02:40:19;;;;;;;2.45;0.30;;;18.80;23.80;;;;;;7405439;19;19918;-73
2023/10/27 02:42:45;;;;;;;3.20;0.60;;;18.80;24.30;;;;;;7405400;19;19918;-73
2023/10/27 02:45:10;;;;;;;1.10;0.40;;;18.70;24.70;;;;;;7402955;19;19918;-72
2023/10/27 02:47:36;;;;;;;2.88;0.70;;;18.60;24.70;;;;;;7401978;19;19935;-74
2023/10/27 02:50:02;;;;;;;0.88;0.43;;;18.60;24.80;;;;;;7402046;19;19918;-73
2023/10/27 02:52:28;;;;;;;1.00;0.40;;;18.60;24.80;;;;;;7405290;19;19946;-73
2023/10/27 02:54:54;;;;;;;1.65;0.30;;;18.50;24.90;;;;;;7400556;19;19925;-73
2023/10/27 02:57:19;;;;;;;0.85;0.30;;;18.50;24.60;;;;;;7400278;19;19959;-72
2023/10/27 02:59:45;;;;;;;3.55;0.43;;;18.50;24.50;;;;;;7404014;19;19911;-73
2023/10/27 03:02:11;;;;;;;1.40;0.47;;;18.50;24.30;;;;;;7399785;19;19949;-74
2023/10/27 03:04:37;;;;;;;1.35;0.40;;;18.50;24.60;;;;;;7406129;19;19960;-74
2023/10/27 03:07:03;;;;;;;1.45;0.40;;;18.40;24.70;;;;;;7402531;19;19926;-72
2023/10/27 03:09:29;;;;;;;1.48;0.38;;;18.30;25.00;;;;;;7406108;19;19923;-73
2023/10/27 03:11:54;;;;;;;2.30;0.45;;;18.20;25.20;;;;;;7404517;19;19925;-73
2023/10/27 03:14:20;;;;;;;2.65;0.50;;;18.20;25.40;;;;;;7407893;19;19914;-73
2023/10/27 03:16:46;;;;;;;1.33;0.32;;;18.20;25.30;;;;;;7406592;19;19923;-73
2023/10/27 03:19:12;;;;;;;2.15;0.45;;;18.20;24.90;;;;;;7403139;19;19922;-73
2023/10/27 03:21:38;;;;;;;2.03;0.40;;;18.20;25.00;;;;;;7401850;19;19922;-73
2023/10/27 03:24:05;;;;;;;1.15;0.25;;;18.00;25.20;;;;;;7401518;19;19998;-72
2023/10/27 03:26:31;;;;;;;3.63;1.13;;;18.00;25.30;;;;;;7405570;19;19929;-73
2023/10/27 03:28:57;;;;;;;1.73;0.43;;;18.10;24.90;;;;;;7401587;19;19922;-72
2023/10/27 03:31:23;;;;;;;1.63;0.38;;;18.00;24.80;;;;;;7404143;19;20748;-73
2023/10/27 03:33:48;;;;;;;1.10;0.32;;;17.90;25.10;;;;;;7403978;19;19923;-73
2023/10/27 03:36:14;;;;;;;1.17;0.30;;;18.00;25.20;;;;;;7401950;19;19925;-73
2023/10/27 03:38:40;;;;;;;1.58;0.40;;;17.90;25.20;;;;;;7401530;19;19933;-73
2023/10/27 03:41:06;;;;;;;1.88;0.45;;;17.90;25.40;;;;;;7401471;19;19911;-72
2023/10/27 03:43:34;;;;;;;1.58;0.40;;;17.90;25.10;;;;;;7403047;19;19928;-73
2023/10/27 03:46:00;;;;;;;1.42;0.30;;;17.90;24.50;;;;;;7401760;19;20264;-72
2023/10/27 03:48:26;;;;;;;1.95;0.43;;;18.10;24.20;;;;;;7401919;19;19922;-72
2023/10/27 03:50:52;;;;;;;1.05;0.30;;;18.10;24.20;;;;;;7404416;19;19947;-72
2023/10/27 03:53:18;;;;;;;1.38;0.30;;;18.00;24.60;;;;;;7402937;19;20279;-72
2023/10/27 03:55:53;;;;;;;1.95;0.50;;;18.10;23.70;;;;;;7403933;19;19997;-73
2023/10/27 03:58:19;;;;;;;0.70;0.30;;;18.00;24.20;;;;;;7398197;19;19919;-74
2023/10/27 04:00:45;;;;;;;1.98;0.30;;;17.90;24.70;;;;;;7401162;19;20267;-74
2023/10/27 04:03:12;;;;;;;1.85;0.40;;;17.80;24.80;;;;;;7380547;19;19950;-74
2023/10/27 04:05:38;;;;;;;2.15;0.32;;;17.80;24.50;;;;;;7404221;19;20326;-73
2023/10/27 04:08:04;;;;;;;1.95;0.50;;;17.80;24.70;;;;;;7400541;19;19919;-71
2023/10/27 04:10:33;;;;;;;1.63;0.38;;;17.80;24.50;;;;;;7406474;19;19985;-72
2023/10/27 04:12:59;;;;;;;1.75;0.32;;;17.80;24.80;;;;;;7383694;19;20339;-72
2023/10/27 04:15:25;;;;;;;0.50;0.32;;;17.90;23.50;;;;;;7403390;19;19917;-72
2023/10/27 04:17:51;;;;;;;2.90;0.40;;;17.90;23.90;;;;;;7401062;19;20343;-73
2023/10/27 04:20:17;;;;;;;2.08;0.43;;;17.80;24.20;;;;;;7402832;19;19923;-72
2023/10/27 04:22:43;;;;;;;1.95;0.50;;;17.80;24.00;;;;;;7382664;19;19950;-73
2023/10/27 04:25:10;;;;;;;1.77;0.38;;;17.80;23.90;;;;;;7401204;19;20232;-74
2023/10/27 04:27:36;;;;;;;;;;;17.80;24.40;;;;;;7405641;19;19918;-73
2023/10/27 04:30:04;;;;;;;3.63;0.60;;;17.90;23.80;;;;;;7400103;19;19923;-73
2023/10/27 04:32:30;;;;;;;1.77;0.70;;;17.80;23.60;;;;;;7397204;19;19915;-73
2023/10/27 04:34:56;;;;;;;3.05;0.50;;;17.90;23.80;;;;;;7401669;19;19911;-72
2023/10/27 04:37:22;;;;;;;1.83;0.45;;;17.90;23.80;;;;;;7402473;19;19934;-73
2023/10/27 04:39:50;;;;;;;1.27;0.22;;;17.80;23.80;;;;;;7403193;19;19935;-73
2023/10/27 04:42:15;;;;;;;0.80;0.20;;;17.90;23.90;;;;;;7403151;19;19935;-74
2023/10/27 04:44:41;;;;;;;2.13;0.32;;;17.90;23.90;;;;;;7404605;19;19918;-74
2023/10/27 04:47:07;;;;;;;1.38;0.30;;;17.80;24.50;;;;;;7400058;19;19906;-72
2023/10/27 04:49:32;;;;;;;1.08;0.30;;;17.80;24.30;;;;;;7378575;19;19915;-73
2023/10/27 04:51:59;;;;;;;1.85;0.25;;;17.80;24.50;;;;;;7400367;19;19950;-72
2023/10/27 04:54:25;;;;;;;2.45;0.43;;;17.70;24.70;;;;;;7399551;19;19933;-73
2023/10/27 04:56:51;;;;;;;1.70;0.43;;;17.70;25.00;;;;;;7401287;19;19931;-72
2023/10/27 04:59:17;;;;;;;1.00;0.20;;;17.70;25.20;;;;;;7397559;19;20565;-72
2023/10/27 05:01:43;;;;;;;0.65;0.20;;;17.70;25.30;;;;;;7400682;19;19990;-72
2023/10/27 05:04:09;;;;;;;1.90;0.13;;;17.70;25.30;;;;;;7398795;19;20343;-72
2023/10/27 05:06:35;;;;;;;2.35;0.50;;;17.70;25.60;;;;;;7402308;19;19994;-74
2023/10/27 05:09:00;;;;;;;2.10;0.30;;;17.60;25.80;;;;;;7401682;19;20563;-72
2023/10/27 05:11:26;;;;;;;1.55;0.30;;;17.60;25.90;;;;;;7397109;19;19914;-73
2023/10/27 05:13:52;;;;;;;2.80;0.90;;;17.60;25.90;;;;;;7399079;19;19914;-73
2023/10/27 05:16:18;;;;;;;1.45;0.32;;;17.60;26.00;;;;;;7377621;19;19922;-73
2023/10/27 05:18:44;;;;;;;1.70;0.40;;;17.60;26.30;;;;;;7401110;19;19930;-73
2023/10/27 05:21:16;;;;;;;1.92;0.30;;;17.50;26.80;;;;;;7398641;19;20244;-74
2023/10/27 05:23:42;;;;;;;1.58;0.40;;;17.40;27.00;;;;;;7397414;19;19922;-73
2023/10/27 05:26:08;;;;;;;1.55;0.70;;;17.40;27.40;;;;;;7400850;19;19926;-75
2023/10/27 05:28:33;;;;;;;1.35;0.28;;;17.40;27.30;;;;;;7402387;19;19918;-74
2023/10/27 05:31:01;;;;;;;3.92;0.32;;;17.30;27.20;;;;;;7403223;19;19926;-74
2023/10/27 05:33:26;;;;;;;2.63;0.40;;;17.30;27.70;;;;;;7400764;19;19939;-73
2023/10/27 05:35:52;;;;;;;3.58;0.40;;;17.20;28.20;;;;;;7402721;19;19918;-73
2023/10/27 05:38:18;;;;;;;1.45;0.30;;;17.20;28.40;;;;;;7401436;19;19918;-75
2023/10/27 05:40:44;;;;;;;2.15;0.32;;;17.10;28.60;;;;;;7401678;19;19921;-74
2023/10/27 05:43:12;;;;;;;2.88;0.40;;;17.20;28.60;;;;;;7398716;19;20008;-75
2023/10/27 05:45:38;;;;;;;3.20;0.45;;;17.20;28.70;;;;;;7401175;19;19918;-76
2023/10/27 05:48:04;;;;;;;3.22;0.40;;;17.10;29.10;;;;;;7402819;19;19925;-75
2023/10/27 05:50:30;;;;;;;2.25;0.40;;;17.00;29.10;;;;;;7407428;19;19915;-74
2023/10/27 05:52:56;;;;;;;2.72;0.60;;;17.10;29.30;;;;;;7403328;19;19914;-74
2023/10/27 05:55:24;;;;;;;2.15;0.60;;;16.90;29.40;;;;;;7402629;19;19929;-75
2023/10/27 05:57:50;;;;;;;3.17;0.73;;;17.00;29.30;;;;;;7403093;19;19943;-74
2023/10/27 06:00:16;;;;;;;4.47;0.47;;;17.00;29.50;;;;;;7404489;19;19918;-73
2023/10/27 06:02:42;;;;;;;2.55;0.40;;;16.90;29.70;;;;;;7400299;19;19922;-75
2023/10/27 06:05:08;;;;;;;1.17;0.40;;;16.90;29.50;;;;;;7383148;19;19923;-74
2023/10/27 06:07:33;;;;;;;3.72;0.40;;;16.90;30.30;;;;;;7402540;19;19917;-74
2023/10/27 06:10:00;;;;;;;2.42;0.30;;;16.80;30.00;;;;;;7405269;19;19914;-74
2023/10/27 06:12:26;;;;;;;3.35;0.55;;;16.80;30.30;;;;;;7402013;19;20734;-75
2023/10/27 06:14:53;;;;;;;2.03;0.30;;;16.80;30.50;;;;;;7404000;19;19939;-76
2023/10/27 06:17:18;;;;;;;3.38;0.32;;;16.80;30.50;;;;;;7404862;19;19918;-75
2023/10/27 06:19:44;;;;;;;2.25;0.30;;;16.80;30.80;;;;;;7403891;19;19922;-74
2023/10/27 06:22:12;;;;;;;1.02;0.25;;;16.80;30.90;;;;;;7402668;19;19923;-74
2023/10/27 06:24:37;;;;;;;4.18;0.65;;;16.70;31.10;;;;;;7405637;19;19922;-74
2023/10/27 06:27:05;;;;;;;0.88;0.30;;;16.70;31.40;;;;;;7400093;19;19921;-74
2023/10/27 06:29:30;;;;;;;4.03;0.60;;;16.70;31.50;;;;;;7403731;19;19978;-74
2023/10/27 06:31:56;;;;;;;2.47;0.65;;;16.70;31.90;;;;;;7405944;19;19953;-74
2023/10/27 06:34:22;;;;;;;2.75;0.50;;;16.60;32.40;;;;;;7399673;19;19930;-75
2023/10/27 06:36:48;;;;;;;2.53;0.40;;;16.60;32.70;;;;;;7404084;19;19914;-75
2023/10/27 06:39:13;;;;;;;3.17;0.47;;;16.60;33.10;;;;;;7402417;19;19927;-74
2023/10/27 06:41:39;;;;;;;3.80;0.50;;;16.60;32.90;;;;;;7393071;19;19921;-75
2023/10/27 06:44:06;;;;;;;2.20;0.68;;;16.60;33.00;;;;;;7402079;19;19987;-74
2023/10/27 06:46:31;;;;;;;6.95;1.00;;;16.50;33.40;;;;;;7396454;19;19923;-74
2023/10/27 06:48:58;;;;;;;3.88;0.80;;;16.50;33.50;;;;;;7403711;19;19915;-75
2023/10/27 06:51:24;;;;;;;4.25;1.08;;;16.60;33.60;;;;;;7401739;19;19922;-74
2023/10/27 06:53:50;;;;;;;1.33;0.40;;;16.60;34.10;;;;;;7380363;19;19978;-75
2023/10/27 06:56:15;;;;;;;1.63;0.30;;;16.60;33.40;;;;;;7375694;19;19919;-74
2023/10/27 06:58:41;;;;;;;1.48;0.40;;;16.60;33.90;;;;;;7386743;19;19958;-75
2023/10/27 07:01:07;;;;;;;5.13;0.60;;;16.60;34.00;;;;;;7384942;19;19962;-76
2023/10/27 07:03:35;;;;;;;3.80;0.70;;;16.60;33.90;;;;;;7395665;19;19914;-75
2023/10/27 07:06:03;;;;;;;2.25;0.47;;;16.60;34.20;;;;;;7395127;19;20406;-75
2023/10/27 07:08:30;;;;;;;1.63;0.43;;;16.60;34.70;;;;;;7399709;19;20462;-74
2023/10/27 07:10:59;;;;;;;2.08;0.80;;;16.60;34.40;;;;;;7389805;19;20277;-74
2023/10/27 07:13:26;;;;;;;2.85;0.38;;;16.60;34.50;;;;;;7390214;19;19927;-73
2023/10/27 07:15:53;;;;;;;2.67;0.70;;;16.60;34.20;;;;;;7373228;19;19914;-74
2023/10/27 07:18:20;;;;;;;1.98;0.35;;;16.60;34.70;;;;;;7394926;19;19923;-74
2023/10/27 07:20:46;;;;;;;3.35;0.50;;;16.60;34.60;;;;;;7386949;19;19921;-74
2023/10/27 07:23:13;;;;;;;3.10;0.77;;;16.70;34.40;;;;;;7391772;19;19910;-74
2023/10/27 07:25:38;;;;;;;1.85;0.40;;;16.70;34.70;;;;;;7391440;19;19918;-75
2023/10/27 07:28:04;;;;;;;3.17;0.70;;;16.70;34.50;;;;;;7385257;19;19921;-74
2023/10/27 07:30:31;;;;;;;2.92;0.55;;;16.70;34.70;;;;;;7366984;19;19988;-73
2023/10/27 07:32:57;;;;;;;3.45;0.30;;;16.80;34.90;;;;;;7394350;19;19922;-74
2023/10/27 07:35:23;;;;;;;3.03;0.38;;;16.70;34.90;;;;;;7394597;19;21380;-73
2023/10/27 07:37:49;;;;;;;4.05;0.52;;;16.70;34.90;;;;;;7398853;19;20532;-74
2023/10/27 07:40:15;;;;;;;2.83;0.45;;;16.70;35.00;;;;;;7395868;19;20467;-75
2023/10/27 07:42:42;;;;;;;3.22;0.63;;;16.70;35.50;;;;;;7396972;19;19918;-75
2023/10/27 07:45:08;;;;;;;5.22;0.50;;;16.70;35.80;;;;;;7392481;19;19927;-74
2023/10/27 07:47:33;;;;;;;1.50;0.32;;;16.70;35.80;;;;;;7397394;19;20620;-74
2023/10/27 07:50:00;;;;;;;2.78;0.68;;;16.60;36.10;;;;;;7378716;19;19922;-74
2023/10/27 07:52:27;;;;;;;;;;;16.60;36.20;;;;;;7396167;19;19922;-76
2023/10/27 07:54:53;;;;;;;2.63;0.55;;;16.60;36.40;;;;;;7394424;19;20609;-75
2023/10/27 07:57:19;;;;;;;2.33;0.63;;;16.70;36.40;;;;;;7393828;19;19925;-73
2023/10/27 07:59:45;;;;;;;1.83;0.40;;;16.60;36.70;;;;;;7400159;19;19934;-74
2023/10/27 08:02:11;;;;;;;2.72;0.40;;;16.70;36.90;;;;;;7388011;19;19922;-75
2023/10/27 08:04:38;;;;;;;1.02;0.22;;;16.60;37.10;;;;;;7393393;19;19938;-74
2023/10/27 08:07:06;;;;;;;1.58;0.25;;;16.60;37.10;;;;;;7396519;19;19949;-75
2023/10/27 08:09:31;;;;;;;1.30;0.40;;;16.70;36.90;;;;;;7395784;19;20251;-75
2023/10/27 08:11:58;;;;;;;5.28;0.50;;;16.70;36.90;;;;;;7397046;19;19925;-75
2023/10/27 08:14:24;;;;;;;2.47;0.60;;;16.70;37.10;;;;;;7394137;19;19965;-74
2023/10/27 08:16:49;;;;;;;0.70;0.28;;;16.70;37.10;;;;;;7399902;19;19933;-75
2023/10/27 08:19:15;;;;;;;2.20;0.35;;;16.80;37.20;;;;;;7395258;19;19910;-76
2023/10/27 08:21:41;;;;;;;0.60;0.30;;;16.90;37.00;;;;;;7400194;19;19926;-75
2023/10/27 08:24:07;;;;;;;2.42;0.30;;;16.90;36.70;;;;;;7400697;19;19915;-75
2023/10/27 08:26:33;;;;;;;1.27;0.40;;;16.90;36.80;;;;;;7402582;19;20040;-75
2023/10/27 08:28:59;;;;;;;3.17;0.50;;;16.90;36.90;;;;;;7404332;19;19922;-75
2023/10/27 08:31:25;;;;;;;3.40;0.63;;;16.90;37.10;;;;;;7401001;19;19934;-75
2023/10/27 08:33:51;;;;;;;2.97;0.82;;;17.10;37.20;;;;;;7403700;19;19932;-75
2023/10/27 08:36:19;;;;;;;6.28;0.52;;;17.10;37.10;;;;;;7396707;19;19952;-75
2023/10/27 08:38:44;;;;;;;2.78;0.60;;;17.20;36.90;;;;;;7400609;19;19921;-74
2023/10/27 08:41:10;;;;;;;3.15;0.52;;;17.30;36.60;;;;;;7399084;19;19910;-74
2023/10/27 08:43:39;;;;;;;3.25;0.50;;;17.30;36.30;;;;;;7402286;19;19942;-74
2023/10/27 08:46:06;;;;;;;1.77;0.57;;;17.30;36.60;;;;;;7397768;19;19986;-76
2023/10/27 08:48:35;;;;;;;1.17;0.45;;;17.20;36.20;;;;;;7400833;19;19915;-74
2023/10/27 08:51:07;;;;;;;2.13;0.82;;;17.40;36.30;;;;;;7401581;19;19934;-75
2023/10/27 08:53:37;;;;;;;4.03;0.52;;;17.30;36.30;;;;;;7400925;19;20016;-76
2023/10/27 08:56:03;;;;;;;3.88;0.90;;;17.40;36.10;;;;;;7398537;19;19915;-74
2023/10/27 08:58:29;;;;;;;4.05;0.50;;;17.60;36.20;;;;;;7401585;19;19981;-75
2023/10/27 09:00:58;;;;;;;4.32;0.65;;;17.60;35.50;;;;;;7396374;19;20301;-75
2023/10/27 09:03:25;;;;;;;3.58;0.60;;;17.80;35.40;;;;;;7399307;19;19964;-75
2023/10/27 09:05:51;;;;;;;3.60;0.93;;;17.90;34.60;;;;;;7400876;19;19918;-75
2023/10/27 09:08:18;;;;;;;2.35;0.63;;;17.70;34.80;;;;;;7398473;19;19926;-75
2023/10/27 09:10:46;;;;;;;1.92;0.50;;;17.70;34.10;;;;;;7378131;19;19917;-74
2023/10/27 09:13:12;;;;;;;2.63;0.43;;;17.70;35.10;;;;;;7397260;19;19915;-74
2023/10/27 09:15:44;;;;;;;1.80;0.50;;;17.60;35.30;;;;;;7396470;19;19915;-76
2023/10/27 09:18:10;;;;;;;4.28;0.77;;;17.80;35.30;;;;;;7397835;19;19932;-75
2023/10/27 09:20:49;;;;;;;9.50;1.10;;;17.90;35.20;;;;;;7402257;19;20295;-75
2023/10/27 09:23:15;;;;;;;5.65;1.20;;;17.90;35.00;;;;;;7407040;19;19914;-74
2023/10/27 09:25:41;;;;;;;2.78;0.68;;;18.00;35.00;;;;;;7404470;19;19986;-74
2023/10/27 09:28:06;;;;;;;3.33;0.80;;;18.30;34.50;;;;;;7402007;19;20338;-74
2023/10/27 09:30:38;;;;;;;3.20;0.73;;;18.40;33.60;;;;;;7404163;19;19934;-75
2023/10/27 09:33:18;;;;;;;2.72;1.25;;;18.80;32.80;;;;;;7402333;19;19926;-74
2023/10/27 09:35:48;;;;;;;3.83;0.90;;;18.90;32.10;;;;;;7383511;19;19922;-75
2023/10/27 09:38:17;;;;;;;3.85;0.82;;;19.40;31.40;;;;;;7403475;19;20335;-75
2023/10/27 09:40:45;;;;;;;3.03;0.75;;;19.70;30.10;;;;;;7405627;19;19939;-74
2023/10/27 09:43:20;;;;;;;3.83;0.70;;;20.20;28.60;;;;;;7403682;19;19911;-75
2023/10/27 09:45:54;;;;;;;3.42;1.00;;;20.50;28.10;;;;;;7401568;19;20338;-75
2023/10/27 09:48:27;;;;;;;3.72;0.85;;;20.30;27.70;;;;;;7393930;19;19907;-75
2023/10/27 09:51:07;;;;;;;2.22;0.77;;;20.50;27.50;;;;;;7401010;19;19926;-75
2023/10/27 09:53:33;;;;;;;2.75;0.93;;;20.10;27.70;;;;;;7400926;19;19915;-77
2023/10/27 09:56:00;;;;;;;2.55;1.02;;;20.50;27.70;;;;;;7399351;19;19974;-76
2023/10/27 09:58:31;;;;;;;4.82;0.70;;;20.60;27.10;;;;;;7400372;19;20278;-75
2023/10/27 10:00:59;;;;;;;3.70;1.00;;;20.60;26.90;;;;;;7388494;19;19917;-76
2023/10/27 10:03:27;;;;;;;3.53;0.90;;;20.90;26.50;;;;;;7399681;19;19926;-75
2023/10/27 10:06:12;;;;;;;2.92;0.95;;;20.70;27.00;;;;;;7403192;19;19929;-79
2023/10/27 10:08:40;;;;;;;3.25;0.88;;;20.90;26.70;;;;;;7397435;19;19919;-75
2023/10/27 10:11:18;;;;;;;3.78;1.35;;;20.90;26.80;;;;;;7398661;19;19952;-75
2023/10/27 10:13:48;;;;;;;3.65;1.00;;;21.00;26.50;;;;;;7397534;19;19921;-75
2023/10/27 10:16:15;;;;;;;3.80;1.20;;;21.30;25.60;;;;;;7394548;19;19926;-77
2023/10/27 10:18:55;;;;;;;2.40;1.10;;;21.40;25.30;;;;;;7402337;19;19952;-76
2023/10/27 10:21:39;;;;;;;5.95;1.27;;;21.50;25.10;;;;;;7397562;19;19917;-75
2023/10/27 10:24:08;;;;;;;1.83;0.70;;;21.80;24.40;;;;;;7394325;19;20340;-76
2023/10/27 10:27:02;;;;;;;3.70;1.05;;;21.40;24.20;;;;;;7393569;19;19911;-75
2023/10/27 10:29:32;;;;;;;3.70;1.02;;;21.80;24.20;;;;;;7397598;19;19920;-76
2023/10/27 10:32:30;;;;;;;2.88;0.85;;;21.90;24.30;;;;;;7397888;19;19919;-74
2023/10/27 10:35:24;;;;;;;3.97;0.90;;;21.60;23.60;;;;;;7381639;19;19919;-75
2023/10/27 10:37:52;;;;;;;3.92;1.25;;;22.10;23.70;;;;;;7401775;19;19915;-77
2023/10/27 10:40:22;;;;;;;2.38;0.73;;;22.80;22.20;;;;;;7397584;19;19933;-76
2023/10/27 10:43:23;;;;;;;2.70;1.00;;;22.70;21.80;;;;;;7403215;19;19922;-75
2023/10/27 10:45:57;;;;;;;3.53;0.77;;;22.30;21.10;;;;;;7377131;19;19915;-75
2023/10/27 10:48:26;;;;;;;3.17;1.17;;;22.70;20.70;;;;;;7394022;19;19938;-76
2023/10/27 10:50:55;;;;;;;2.85;0.98;;;22.40;20.70;;;;;;7398917;19;20276;-76
2023/10/27 10:53:24;;;;;;;3.65;1.05;;;22.60;20.30;;;;;;7398402;19;19915;-76
2023/10/27 10:55:59;;;;;;;2.80;1.13;;;23.30;19.00;;;;;;7396019;19;19932;-75
2023/10/27 10:58:30;;;;;;;3.90;1.00;;;23.20;19.00;;;;;;7396291;19;20445;-76
2023/10/27 11:00:57;;;;;;;3.05;1.00;;;22.90;19.20;;;;;;7399929;19;19914;-74
2023/10/27 11:03:25;;;;;;;3.35;0.70;;;22.40;19.30;;;;;;7376908;19;19928;-75
2023/10/27 11:05:54;;;;;;;3.30;1.10;;;22.90;19.30;;;;;;7373740;19;19923;-75
2023/10/27 11:08:25;;;;;;;5.18;0.98;;;22.90;19.30;;;;;;7392154;19;20330;-75
2023/10/27 11:10:58;;;;;;;4.28;0.98;;;23.00;19.00;;;;;;7395162;19;20399;-75
2023/10/27 11:13:25;;;;;;;4.35;1.17;;;23.00;19.00;;;;;;7399447;19;19922;-76
2023/10/27 11:15:52;;;;;;;3.35;0.80;;;22.90;19.00;;;;;;7388258;19;19910;-75
2023/10/27 11:18:18;;;;;;;2.85;1.10;;;22.90;18.90;;;;;;7391160;19;20351;-75
2023/10/27 11:20:45;;;;;;;3.58;1.13;;;22.70;18.90;;;;;;7394157;19;19918;-74
2023/10/27 11:23:16;;;;;;;8.68;1.20;;;23.10;18.40;;;;;;7386439;19;19921;-75
2023/10/27 11:25:43;;;;;;;3.70;1.33;;;23.10;17.50;;;;;;7377520;19;19919;-76
2023/10/27 11:28:26;;;;;;;4.00;1.30;;;23.20;17.70;;;;;;7393598;19;19915;-75
2023/10/27 11:31:05;;;;;;;2.83;1.15;;;23.20;17.40;;;;;;7390717;19;20048;-75
2023/10/27 11:33:31;;;;;;;7.53;1.33;;;23.50;17.20;;;;;;7388869;19;19994;-75
2023/10/27 11:35:58;;;;;;;5.15;1.35;;;23.60;16.80;;;;;;7393209;19;19915;-75
2023/10/27 11:38:31;;;;;;;4.57;1.23;;;24.00;16.80;;;;;;7392175;19;19917;-74
2023/10/27 11:41:10;;;;;;;2.95;1.10;;;23.90;15.10;;;;;;7395640;19;19921;-75
2023/10/27 11:43:36;;;;;;;4.13;1.33;;;23.90;14.90;;;;;;7386494;19;19961;-75
2023/10/27 11:46:12;;;;;;;3.83;1.00;;;24.30;14.70;;;;;;7392266;19;19950;-75
2023/10/27 11:48:38;;;;;;;4.43;1.30;;;24.10;14.80;;;;;;7391497;19;20326;-75
2023/10/27 11:51:05;;;;;;;4.47;1.13;;;24.20;14.30;;;;;;7392635;19;19918;-75
2023/10/27 11:53:31;;;;;;;5.60;1.92;;;23.80;14.60;;;;;;7392291;19;19933;-76
2023/10/27 11:55:56;;;;;;;3.20;1.10;;;24.50;13.50;;;;;;7387260;19;19922;-75
2023/10/27 11:58:22;;;;;;;4.40;1.05;;;24.80;13.10;;;;;;7378541;19;20021;-75
2023/10/27 12:00:48;;;;;;;4.10;1.45;;;24.50;12.80;;;;;;7387979;19;19915;-76
2023/10/27 12:03:14;;;;;;;6.32;0.98;;;25.00;12.40;;;;;;7391875;19;19919;-76
2023/10/27 12:05:40;;;;;;;3.17;1.30;;;24.80;12.30;;;;;;7388242;19;20453;-75
2023/10/27 12:08:05;;;;;;;7.95;1.63;;;24.50;12.20;;;;;;7395723;19;19915;-75
2023/10/27 12:10:32;;;;;;;8.02;1.38;;;24.60;12.20;;;;;;7398127;19;19938;-75
2023/10/27 12:12:59;;;;;;;2.95;1.23;;;25.00;11.90;;;;;;7396129;19;19937;-75
2023/10/27 12:15:24;;;;;;;11.52;1.38;;;24.70;11.90;;;;;;7396404;19;19930;-76
2023/10/27 12:17:51;;;;;;;4.35;1.42;;;24.70;11.50;;;;;;7399225;19;19914;-75
2023/10/27 12:20:17;;;;;;;3.85;1.10;;;24.80;11.50;;;;;;7398368;19;19921;-75
2023/10/27 12:22:46;;;;;;;3.17;1.25;;;25.60;10.80;;;;;;7376088;19;19919;-76
2023/10/27 12:25:12;;;;;;;2.90;0.95;;;24.90;10.60;;;;;;7394781;19;20530;-76
2023/10/27 12:27:38;;;;;;;3.08;1.38;;;24.60;10.60;;;;;;7398236;19;20007;-76
2023/10/27 12:30:04;;;;;;;;;;;24.80;10.50;;;;;;7377806;19;19925;-75
2023/10/27 12:32:33;;;;;;;2.60;0.88;;;24.60;10.70;;;;;;7401870;19;20286;-75
2023/10/27 12:35:00;;;;;;;2.17;1.05;;;24.90;10.60;;;;;;7401215;19;19922;-75
2023/10/27 12:37:25;;;;;;;4.40;1.13;;;25.10;9.90;;;;;;7399481;19;19915;-75
2023/10/27 12:39:53;;;;;;;3.15;1.38;;;25.50;9.80;;;;;;7400089;19;20352;-75
2023/10/27 12:42:19;;;;;;;3.47;1.45;;;25.60;9.20;;;;;;7398991;19;19930;-74
2023/10/27 12:44:45;;;;;;;4.38;1.67;;;25.30;9.20;;;;;;7397149;19;19948;-76
2023/10/27 12:47:10;;;;;;;;;;;25.80;9.30;;;;;;7399618;19;19926;-76
2023/10/27 12:49:38;;;;;;;4.00;1.60;;;25.80;9.10;;;;;;7398472;19;20371;-75